Time;durP1;ratioP1;P1;durP2;ratioP2;P2;SDS_P1;SDS_P2;PMS_P1;PMS_P2;Temp;Humidity;BMP_temperature;BMP_pressure;BME280_temperature;BME280_humidity;BME280_pressure;Samples;Min_cycle;Max_cycle;Signal;HPM_P1;HPM_P2
2023/11/26 00:00:39;;;;;;;;;;;1.60;99.90;;;;;;4848994;29;19927;-74
2023/11/26 00:03:11;;;;;;;;;;;0.40;99.90;;;;;;4848091;29;19957;-75
2023/11/26 00:05:40;;;;;;;;;;;1.20;99.90;;;;;;4831671;29;19920;-75
2023/11/26 00:08:09;;;;;;;;;;;1.70;99.90;;;;;;4857290;29;19962;-75
2023/11/26 00:10:37;;;;;;;;;;;0.00;99.90;;;;;;4865933;29;21869;-74
2023/11/26 00:13:06;;;;;;;;;;;-0.10;99.90;;;;;;4815596;29;19939;-77
2023/11/26 00:15:35;;;;;;;;;;;-0.10;99.90;;;;;;4812030;29;19932;-76
2023/11/26 00:18:04;;;;;;;;;;;-0.10;99.90;;;;;;4811002;29;19938;-76
2023/11/26 00:20:32;;;;;;;;;;;-0.10;99.90;;;;;;4810147;29;19936;-76
2023/11/26 00:23:00;;;;;;;;;;;-0.20;99.90;;;;;;4810259;29;19974;-76
2023/11/26 00:25:28;;;;;;;;;;;-0.10;99.90;;;;;;4812032;29;20052;-76
2023/11/26 00:27:56;;;;;;;;;;;-0.20;99.90;;;;;;4795578;29;20503;-76
2023/11/26 00:30:25;;;;;;;;;;;-0.20;99.90;;;;;;4792718;29;19939;-76
2023/11/26 00:32:55;;;;;;;;;;;-0.20;99.90;;;;;;4809490;29;22140;-76
2023/11/26 00:35:23;;;;;;;;;;;-0.20;99.90;;;;;;4812348;29;19932;-76
2023/11/26 00:37:52;;;;;;;;;;;-0.20;99.90;;;;;;4810664;29;19932;-76
2023/11/26 00:40:24;;;;;;;;;;;-0.20;99.90;;;;;;4810694;29;19981;-76
2023/11/26 00:42:53;;;;;;;;;;;-0.20;99.90;;;;;;4793753;29;19931;-76
2023/11/26 00:45:21;;;;;;;;;;;-0.20;99.90;;;;;;4794502;29;19939;-76
2023/11/26 00:47:49;;;;;;;;;;;-0.20;99.90;;;;;;4793605;29;19991;-76
2023/11/26 00:50:19;;;;;;;;;;;-0.20;99.90;;;;;;4810989;29;19932;-76
2023/11/26 00:52:47;;;;;;;;;;;-0.20;99.90;;;;;;4794858;29;19931;-75
2023/11/26 00:55:15;;;;;;;;;;;-0.20;99.90;;;;;;4794587;29;19999;-76
2023/11/26 00:57:44;;;;;;;;;;;-0.20;99.90;;;;;;4808922;29;22077;-75
2023/11/26 01:00:12;;;;;;;;;;;-0.30;99.90;;;;;;4811120;29;19932;-76
2023/11/26 01:02:41;;;;;;;;;;;-0.30;99.90;;;;;;4827180;29;20213;-76
2023/11/26 01:05:10;;;;;;;;;;;-0.20;99.90;;;;;;4808614;29;20038;-76
2023/11/26 01:07:39;;;;;;;;;;;-0.30;99.90;;;;;;4808924;29;19988;-76
2023/11/26 01:10:08;;;;;;;;;;;-0.20;99.90;;;;;;4839388;29;20028;-76
2023/11/26 01:12:36;;;;;;;;;;;-0.20;99.90;;;;;;4813211;29;19939;-76
2023/11/26 01:15:06;;;;;;;;;;;-0.20;99.90;;;;;;4812600;29;19938;-76
2023/11/26 01:17:35;;;;;;;;;;;-0.20;99.90;;;;;;4798362;29;20451;-76
2023/11/26 01:20:04;;;;;;;;;;;0.00;99.90;;;;;;4835219;29;19932;-75
2023/11/26 01:22:33;;;;;;;;;;;-0.20;99.90;;;;;;4851966;29;20492;-78
2023/11/26 01:25:03;;;;;;;;;;;-0.20;99.90;;;;;;4856531;29;19945;-75
2023/11/26 01:27:31;;;;;;;;;;;-0.50;99.90;;;;;;4852286;29;21803;-75
2023/11/26 01:30:01;;;;;;;;;;;-0.20;99.90;;;;;;4852048;29;19951;-75
2023/11/26 01:32:31;;;;;;;;;;;0.20;99.90;;;;;;4849697;29;19927;-75
2023/11/26 01:35:01;;;;;;;;;;;0.30;99.90;;;;;;4857050;29;19933;-75
2023/11/26 01:37:30;;;;;;;;;;;0.00;99.90;;;;;;4836326;29;19927;-75
2023/11/26 01:39:59;;;;;;;;;;;2.80;99.90;;;;;;4842167;29;20023;-75
2023/11/26 01:42:29;;;;;;;;;;;0.60;99.90;;;;;;4832110;29;19934;-75
2023/11/26 01:44:58;;;;;;;;;;;0.70;99.90;;;;;;4853738;29;20132;-76
2023/11/26 01:47:28;;;;;;;;;;;0.50;99.90;;;;;;4834524;29;19920;-75
2023/11/26 01:49:56;;;;;;;;;;;-0.10;99.90;;;;;;4841512;29;19988;-75
2023/11/26 01:52:26;;;;;;;;;;;-0.70;99.90;;;;;;4834447;29;20673;-75
2023/11/26 01:54:55;;;;;;;;;;;0.00;99.90;;;;;;4844738;29;19928;-75
2023/11/26 01:57:24;;;;;;;;;;;0.60;99.90;;;;;;4839379;29;19939;-75
2023/11/26 01:59:54;;;;;;;;;;;1.20;99.90;;;;;;4851429;29;19932;-75
2023/11/26 02:02:23;;;;;;;;;;;0.10;99.90;;;;;;4833040;29;19932;-75
2023/11/26 02:04:52;;;;;;;;;;;0.50;99.90;;;;;;4856264;29;19932;-75
2023/11/26 02:07:21;;;;;;;;;;;0.60;99.90;;;;;;4842315;29;19920;-75
2023/11/26 02:09:50;;;;;;;;;;;-0.30;99.90;;;;;;4840506;29;19932;-75
2023/11/26 02:12:19;;;;;;;;;;;-3.00;99.90;;;;;;4839430;29;19932;-75
2023/11/26 02:14:48;;;;;;;;;;;1.60;99.90;;;;;;4828096;29;19932;-75
2023/11/26 02:17:20;;;;;;;;;;;1.40;99.90;;;;;;4835947;29;20000;-75
2023/11/26 02:19:50;;;;;;;;;;;0.50;99.90;;;;;;4830080;29;19928;-76
2023/11/26 02:22:19;;;;;;;;;;;-0.50;99.90;;;;;;4829066;29;19970;-75
2023/11/26 02:24:50;;;;;;;;;;;0.00;99.90;;;;;;4843501;29;19932;-76
2023/11/26 02:27:19;;;;;;;;;;;-0.80;99.90;;;;;;4842417;29;22104;-75
2023/11/26 02:29:48;;;;;;;;;;;-2.10;99.90;;;;;;4842110;29;20056;-76
2023/11/26 02:32:16;;;;;;;;;;;0.00;99.90;;;;;;4834861;29;19971;-75
2023/11/26 02:34:45;;;;;;;;;;;0.60;99.90;;;;;;4841560;29;19939;-75
2023/11/26 02:37:14;;;;;;;;;;;0.10;99.90;;;;;;4833277;29;20103;-75
2023/11/26 02:39:43;;;;;;;;;;;1.30;99.90;;;;;;4839258;29;19936;-75
2023/11/26 02:42:13;;;;;;;;;;;-0.20;99.90;;;;;;4822068;29;20315;-75
2023/11/26 02:44:43;;;;;;;;;;;-0.50;99.90;;;;;;4840711;29;20397;-76
2023/11/26 02:47:13;;;;;;;;;;;1.50;99.90;;;;;;4822159;29;19931;-74
2023/11/26 02:49:42;;;;;;;;;;;-0.40;99.90;;;;;;4817270;29;19927;-74
2023/11/26 02:52:11;;;;;;;;;;;0.00;99.90;;;;;;4837535;29;19995;-75
2023/11/26 02:54:40;;;;;;;;;;;-2.00;99.90;;;;;;4835644;29;20058;-75
2023/11/26 02:57:08;;;;;;;;;;;-0.30;99.90;;;;;;4838863;29;19931;-75
2023/11/26 02:59:38;;;;;;;;;;;-1.90;99.90;;;;;;4840709;29;19946;-75
2023/11/26 03:02:07;;;;;;;;;;;1.20;99.90;;;;;;4840673;29;19932;-76
2023/11/26 03:04:37;;;;;;;;;;;2.20;99.90;;;;;;4823276;29;20024;-75
2023/11/26 03:07:06;;;;;;;;;;;-0.60;99.90;;;;;;4842799;29;20137;-76
2023/11/26 03:12:56;;;;;;;;;;;-0.60;99.90;;;;;;4826372;29;19927;-75
2023/11/26 03:15:26;;;;;;;;;;;0.40;99.90;;;;;;4801945;29;20363;-75
2023/11/26 03:17:56;;;;;;;;;;;-0.10;99.90;;;;;;4826146;29;19920;-75
2023/11/26 03:20:26;;;;;;;;;;;0.40;99.90;;;;;;4834043;29;19920;-75
2023/11/26 03:22:57;;;;;;;;;;;0.10;99.90;;;;;;4820024;29;20028;-75
2023/11/26 03:25:26;;;;;;;;;;;0.70;99.90;;;;;;4829769;29;19927;-75
2023/11/26 03:27:55;;;;;;;;;;;0.10;99.90;;;;;;4848437;29;19930;-74
2023/11/26 03:30:24;;;;;;;;;;;-0.10;99.90;;;;;;4839098;29;19933;-74
2023/11/26 03:32:55;;;;;;;;;;;-0.20;99.90;;;;;;4845303;29;19932;-75
2023/11/26 03:35:24;;;;;;;;;;;-0.30;99.90;;;;;;4825685;29;19920;-75
2023/11/26 03:37:53;;;;;;;;;;;-0.70;99.90;;;;;;4825091;29;19932;-76
2023/11/26 03:40:22;;;;;;;;;;;-0.60;99.90;;;;;;4840732;29;20135;-76
2023/11/26 03:42:50;;;;;;;;;;;-0.60;99.90;;;;;;4820296;29;20092;-73
2023/11/26 03:45:18;;;;;;;;;;;-0.50;99.90;;;;;;4808059;29;19931;-72
2023/11/26 03:47:47;;;;;;;;;;;-0.60;99.90;;;;;;4794273;29;19939;-72
2023/11/26 03:50:19;;;;;;;;;;;-0.80;99.90;;;;;;4792530;29;22578;-72
2023/11/26 03:52:47;;;;;;;;;;;-0.70;99.90;;;;;;4810283;29;22138;-73
2023/11/26 03:55:16;;;;;;;;;;;-0.60;99.90;;;;;;4807942;29;19964;-73
2023/11/26 03:57:44;;;;;;;;;;;-0.60;99.90;;;;;;4792848;29;19932;-75
2023/11/26 04:00:13;;;;;;;;;;;-0.70;99.90;;;;;;4791537;29;19967;-75
2023/11/26 04:02:42;;;;;;;;;;;-0.70;99.90;;;;;;4809247;29;19931;-72
2023/11/26 04:05:12;;;;;;;;;;;-1.00;99.90;;;;;;4806997;29;19939;-75
2023/11/26 04:07:41;;;;;;;;;;;-0.70;99.90;;;;;;4789871;29;19932;-73
2023/11/26 04:10:10;;;;;;;;;;;-0.70;99.90;;;;;;4790371;29;19979;-73
2023/11/26 04:12:38;;;;;;;;;;;-0.30;99.90;;;;;;4817086;29;19941;-72
2023/11/26 04:15:07;;;;;;;;;;;-0.60;99.90;;;;;;4817791;29;19959;-71
2023/11/26 04:17:37;;;;;;;;;;;-0.60;99.90;;;;;;4821439;29;19932;-72
2023/11/26 04:20:08;;;;;;;;;;;-0.60;99.90;;;;;;4807648;29;19963;-73
2023/11/26 04:22:36;;;;;;;;;;;-0.70;99.90;;;;;;4808235;29;22114;-73
2023/11/26 04:25:06;;;;;;;;;;;-0.60;99.90;;;;;;4786911;29;20086;-73
2023/11/26 04:27:34;;;;;;;;;;;-0.70;99.90;;;;;;4784616;29;19967;-73
2023/11/26 04:30:04;;;;;;;;;;;-0.70;99.90;;;;;;4808589;29;19932;-75
2023/11/26 04:32:32;;;;;;;;;;;-0.70;99.90;;;;;;4808663;29;19932;-73
2023/11/26 04:35:01;;;;;;;;;;;-0.60;99.90;;;;;;4819702;29;19938;-72
2023/11/26 04:37:29;;;;;;;;;;;-0.60;99.90;;;;;;4810244;29;22073;-72
2023/11/26 04:39:57;;;;;;;;;;;-0.70;99.90;;;;;;4810836;29;19932;-73
2023/11/26 04:42:27;;;;;;;;;;;-0.70;99.90;;;;;;4787710;29;19985;-71
2023/11/26 04:44:55;;;;;;;;;;;-0.60;99.90;;;;;;4787000;29;19932;-72
2023/11/26 04:47:23;;;;;;;;;;;-0.70;99.90;;;;;;4823273;29;20415;-71
2023/11/26 04:49:55;;;;;;;;;;;-0.80;99.90;;;;;;4824480;29;19993;-72
2023/11/26 04:52:24;;;;;;;;;;;-0.70;99.90;;;;;;4809638;29;19932;-72
2023/11/26 04:54:52;;;;;;;;;;;-0.70;99.90;;;;;;4808988;29;19932;-72
2023/11/26 04:57:20;;;;;;;;;;;-0.60;99.90;;;;;;4792390;29;19936;-74
2023/11/26 04:59:50;;;;;;;;;;;-0.60;99.90;;;;;;4809138;29;20391;-74
2023/11/26 05:02:18;;;;;;;;;;;-0.70;99.90;;;;;;4823050;29;19924;-72
2023/11/26 05:04:48;;;;;;;;;;;-0.70;99.90;;;;;;4811563;29;22010;-72
2023/11/26 05:07:16;;;;;;;;;;;-0.70;99.90;;;;;;4805489;29;22415;-72
2023/11/26 05:09:44;;;;;;;;;;;-0.70;99.90;;;;;;4819634;29;20056;-72
2023/11/26 05:12:13;;;;;;;;;;;-0.80;99.90;;;;;;4794273;29;19999;-72
2023/11/26 05:14:43;;;;;;;;;;;-0.70;99.90;;;;;;4811167;29;20012;-73
2023/11/26 05:17:13;;;;;;;;;;;-0.70;99.90;;;;;;4807306;29;19932;-72
2023/11/26 05:19:41;;;;;;;;;;;-0.70;99.90;;;;;;4791705;29;20677;-73
2023/11/26 05:22:09;;;;;;;;;;;-0.70;99.90;;;;;;4807725;29;19932;-73
2023/11/26 05:24:38;;;;;;;;;;;-0.70;99.90;;;;;;4822999;29;19931;-72
2023/11/26 05:27:06;;;;;;;;;;;-0.70;99.90;;;;;;4807283;29;20026;-73
2023/11/26 05:29:35;;;;;;;;;;;-0.70;99.90;;;;;;4824568;29;20054;-73
2023/11/26 05:32:04;;;;;;;;;;;-0.70;99.90;;;;;;4812473;29;19939;-71
2023/11/26 05:34:34;;;;;;;;;;;-0.70;99.90;;;;;;4821475;29;19971;-73
2023/11/26 05:37:03;;;;;;;;;;;-0.70;99.90;;;;;;4784135;29;19955;-71
2023/11/26 05:39:31;;;;;;;;;;;-0.70;99.90;;;;;;4805884;29;19932;-72
2023/11/26 05:41:59;;;;;;;;;;;-0.70;99.90;;;;;;4808927;29;19938;-72
2023/11/26 05:44:28;;;;;;;;;;;-0.70;99.90;;;;;;4808114;29;20094;-71
2023/11/26 05:46:56;;;;;;;;;;;-0.60;99.90;;;;;;4820995;29;20426;-73
2023/11/26 05:49:24;;;;;;;;;;;-0.70;99.90;;;;;;4807228;29;19935;-72
2023/11/26 05:51:54;;;;;;;;;;;-0.60;99.90;;;;;;4823351;29;20338;-72
2023/11/26 05:54:22;;;;;;;;;;;-0.60;99.90;;;;;;4824909;29;20384;-73
2023/11/26 05:56:50;;;;;;;;;;;-0.30;99.90;;;;;;4807551;29;20070;-72
2023/11/26 05:59:19;;;;;;;;;;;-0.60;99.90;;;;;;4812740;29;20424;-72
2023/11/26 06:01:47;;;;;;;;;;;-0.60;99.90;;;;;;4808929;29;19984;-74
2023/11/26 06:04:15;;;;;;;;;;;-0.60;99.90;;;;;;4803954;29;19936;-74
2023/11/26 06:06:43;;;;;;;;;;;-0.60;99.90;;;;;;4813980;29;19931;-74
2023/11/26 06:09:15;;;;;;;;;;;-0.40;99.90;;;;;;4820323;29;19932;-74
2023/11/26 06:11:43;;;;;;;;;;;-0.60;99.90;;;;;;4811071;29;19955;-75
2023/11/26 06:14:12;;;;;;;;;;;-0.60;99.90;;;;;;4801401;29;19935;-74
2023/11/26 06:16:41;;;;;;;;;;;-0.50;99.90;;;;;;4820983;29;19975;-74
2023/11/26 06:19:11;;;;;;;;;;;-0.50;99.90;;;;;;4810949;29;22871;-74
2023/11/26 06:21:39;;;;;;;;;;;-0.50;99.90;;;;;;4818169;29;19928;-74
2023/11/26 06:24:09;;;;;;;;;;;-0.50;99.90;;;;;;4833213;29;19939;-74
2023/11/26 06:26:40;;;;;;;;;;;-0.40;99.90;;;;;;4821022;29;19938;-75
2023/11/26 06:29:08;;;;;;;;;;;-0.40;99.90;;;;;;4811307;29;19938;-75
2023/11/26 06:31:36;;;;;;;;;;;-0.30;99.90;;;;;;4809476;29;20029;-75
2023/11/26 06:34:05;;;;;;;;;;;-0.30;99.90;;;;;;4811153;29;19972;-74
2023/11/26 06:36:33;;;;;;;;;;;-0.10;99.90;;;;;;4808892;29;19932;-74
2023/11/26 06:39:00;;;;;;;;;;;-0.10;99.90;;;;;;4827530;29;19932;-75
2023/11/26 06:41:29;;;;;;;;;;;0.10;99.90;;;;;;4811355;29;22184;-74
2023/11/26 06:43:59;;;;;;;;;;;0.20;99.90;;;;;;4795118;29;19932;-74
2023/11/26 06:46:28;;;;;;;;;;;0.10;99.90;;;;;;4793760;29;19932;-74
2023/11/26 06:48:56;;;;;;;;;;;0.40;99.90;;;;;;4793301;29;19932;-75
2023/11/26 06:51:25;;;;;;;;;;;0.50;99.90;;;;;;4809210;29;19943;-75
2023/11/26 06:53:53;;;;;;;;;;;0.60;99.90;;;;;;4827430;29;20006;-74
2023/11/26 06:56:21;;;;;;;;;;;0.60;99.90;;;;;;4785819;29;20361;-75
2023/11/26 06:58:49;;;;;;;;;;;0.60;99.90;;;;;;4788568;29;19938;-74
2023/11/26 07:01:19;;;;;;;;;;;0.70;99.90;;;;;;4805556;29;19931;-76
2023/11/26 07:03:48;;;;;;;;;;;0.80;99.90;;;;;;4804824;29;19939;-76
2023/11/26 07:06:17;;;;;;;;;;;0.70;99.90;;;;;;4793078;29;19932;-76
2023/11/26 07:08:45;;;;;;;;;;;0.90;99.90;;;;;;4792626;29;20732;-77
2023/11/26 07:11:17;;;;;;;;;;;1.00;99.90;;;;;;4783940;29;19936;-76
2023/11/26 07:13:47;;;;;;;;;;;1.00;99.90;;;;;;4809755;29;20389;-75
2023/11/26 07:16:16;;;;;;;;;;;1.00;99.90;;;;;;4810992;29;19931;-77
2023/11/26 07:18:46;;;;;;;;;;;1.20;99.90;;;;;;4824869;29;19932;-77
2023/11/26 07:21:14;;;;;;;;;;;1.10;99.90;;;;;;4807857;29;19963;-76
2023/11/26 07:23:43;;;;;;;;;;;1.20;99.90;;;;;;4812093;29;19963;-76
2023/11/26 07:26:12;;;;;;;;;;;1.20;99.90;;;;;;4815191;29;19932;-76
2023/11/26 07:28:40;;;;;;;;;;;1.00;99.90;;;;;;4812097;29;19932;-76
2023/11/26 07:31:16;;;;;;;;;;;1.30;99.90;;;;;;4793082;29;21856;-76
2023/11/26 07:33:45;;;;;;;;;;;1.30;99.90;;;;;;4807703;29;19939;-78
2023/11/26 07:36:16;;;;;;;;;;;1.20;99.90;;;;;;4794741;29;19931;-77
2023/11/26 07:38:44;;;;;;;;;;;1.30;99.90;;;;;;4793163;29;19932;-76
2023/11/26 07:41:12;;;;;;;;;;;1.40;99.90;;;;;;4809526;29;20746;-78
2023/11/26 07:43:41;;;;;;;;;;;1.40;99.90;;;;;;4792209;29;19939;-76
2023/11/26 07:46:10;;;;;;;;;;;1.40;99.90;;;;;;4815468;29;20549;-75
2023/11/26 07:48:39;;;;;;;;;;;1.60;99.90;;;;;;4817678;29;20644;-76
2023/11/26 07:51:08;;;;;;;;;;;1.60;99.90;;;;;;4810408;29;20405;-77
2023/11/26 07:53:38;;;;;;;;;;;1.60;99.90;;;;;;4831674;29;20372;-75
2023/11/26 07:56:07;;;;;;;;;;;1.60;99.90;;;;;;4820661;29;20723;-77
2023/11/26 07:58:35;;;;;;;;;;;1.50;99.90;;;;;;4807938;29;19932;-77
2023/11/26 08:01:05;;;;;;;;;;;1.50;99.90;;;;;;4807239;29;19932;-75
2023/11/26 08:03:33;;;;;;;;;;;1.50;99.90;;;;;;4806900;29;20307;-75
2023/11/26 08:06:02;;;;;;;;;;;1.60;99.90;;;;;;4790970;29;20419;-76
2023/11/26 08:08:35;;;;;;;;;;;1.80;99.90;;;;;;4826656;29;19975;-75
2023/11/26 08:11:05;;;;;;;;;;;1.90;99.90;;;;;;4809677;29;19931;-76
2023/11/26 08:13:37;;;;;;;;;;;2.10;99.90;;;;;;4829425;29;19966;-76
2023/11/26 08:16:09;;;;;;;;;;;2.20;99.90;;;;;;4809421;29;19939;-77
2023/11/26 08:18:39;;;;;;;;;;;2.30;99.90;;;;;;4823349;29;20058;-76
2023/11/26 08:21:08;;;;;;;;;;;2.40;99.90;;;;;;4807172;29;19932;-76
2023/11/26 08:23:40;;;;;;;;;;;2.50;99.90;;;;;;4821380;29;19932;-77
2023/11/26 08:26:10;;;;;;;;;;;2.50;99.90;;;;;;4817098;29;19959;-75
2023/11/26 08:28:43;;;;;;;;;;;2.60;99.90;;;;;;4837604;29;19932;-77
2023/11/26 08:31:12;;;;;;;;;;;2.70;99.90;;;;;;4826004;29;19928;-76
2023/11/26 08:33:44;;;;;;;;;;;1.30;99.90;;;;;;4839355;29;19971;-77
2023/11/26 08:36:15;;;;;;;;;;;3.30;99.90;;;;;;4829920;29;19926;-77
2023/11/26 08:38:46;;;;;;;;;;;2.60;99.90;;;;;;4827626;29;19946;-76
2023/11/26 08:41:20;;;;;;;;;;;3.00;99.90;;;;;;4851986;29;20258;-76
2023/11/26 08:43:50;;;;;;;;;;;2.90;99.90;;;;;;4831139;29;22208;-76
2023/11/26 08:46:22;;;;;;;;;;;3.00;99.90;;;;;;4835267;29;20548;-77
2023/11/26 08:48:52;;;;;;;;;;;3.10;99.90;;;;;;4834559;29;20079;-77
2023/11/26 08:51:22;;;;;;;;;;;3.50;99.90;;;;;;4809962;29;20770;-77
2023/11/26 08:53:51;;;;;;;;;;;3.00;99.90;;;;;;4804264;29;19920;-77
2023/11/26 08:56:21;;;;;;;;;;;3.10;99.90;;;;;;4814695;29;20422;-78
2023/11/26 08:58:50;;;;;;;;;;;1.70;99.90;;;;;;4851392;29;20142;-77
2023/11/26 09:01:18;;;;;;;;;;;3.90;99.90;;;;;;4838411;29;19955;-78
2023/11/26 09:03:46;;;;;;;;;;;3.70;99.90;;;;;;4835179;29;20482;-76
2023/11/26 09:06:17;;;;;;;;;;;3.30;99.90;;;;;;4834426;29;19932;-77
2023/11/26 09:08:49;;;;;;;;;;;3.40;99.90;;;;;;4815912;29;19932;-78
2023/11/26 09:11:17;;;;;;;;;;;3.30;99.90;;;;;;4840324;29;19959;-76
2023/11/26 09:13:47;;;;;;;;;;;3.30;99.90;;;;;;4814454;29;19945;-77
2023/11/26 09:16:17;;;;;;;;;;;3.30;99.90;;;;;;4825627;29;19949;-76
2023/11/26 09:18:46;;;;;;;;;;;3.40;99.90;;;;;;4817583;29;19933;-77
2023/11/26 09:21:15;;;;;;;;;;;3.50;99.90;;;;;;4835920;29;19927;-79
2023/11/26 09:23:44;;;;;;;;;;;3.60;99.90;;;;;;4819734;29;19932;-76
2023/11/26 09:26:13;;;;;;;;;;;3.60;99.90;;;;;;4831315;29;19963;-77
2023/11/26 09:28:42;;;;;;;;;;;3.60;99.90;;;;;;4837371;29;20456;-79
2023/11/26 09:31:23;;;;;;;;;;;3.70;99.90;;;;;;4829427;29;20749;-76
2023/11/26 09:33:53;;;;;;;;;;;3.70;99.90;;;;;;4820087;29;19963;-78
2023/11/26 09:36:22;;;;;;;;;;;3.60;99.90;;;;;;4790041;29;19939;-76
2023/11/26 09:38:53;;;;;;;;;;;3.50;99.90;;;;;;4795340;29;20684;-78
2023/11/26 09:41:22;;;;;;;;;;;3.30;99.90;;;;;;4812612;29;19932;-77
2023/11/26 09:43:50;;;;;;;;;;;3.30;99.90;;;;;;4811813;29;19939;-76
2023/11/26 09:46:19;;;;;;;;;;;3.20;99.90;;;;;;4799740;29;19938;-79
2023/11/26 09:48:50;;;;;;;;;;;3.20;99.90;;;;;;4812849;29;19932;-77
2023/11/26 09:51:23;;;;;;;;;;;3.30;99.90;;;;;;4794878;29;19985;-77
2023/11/26 09:53:52;;;;;;;;;;;3.30;99.90;;;;;;4824555;29;19924;-76
2023/11/26 09:56:20;;;;;;;;;;;3.30;99.90;;;;;;4816851;29;19939;-78
2023/11/26 09:58:48;;;;;;;;;;;3.50;99.90;;;;;;4809665;29;19931;-78
2023/11/26 10:01:17;;;;;;;;;;;3.60;99.90;;;;;;4810179;29;20356;-77
2023/11/26 10:03:56;;;;;;;;;;;3.40;99.90;;;;;;4812426;29;20402;-78
2023/11/26 10:06:27;;;;;;;;;;;3.30;99.90;;;;;;4789850;29;19931;-76
2023/11/26 10:08:56;;;;;;;;;;;3.30;99.90;;;;;;4782704;29;19940;-77
2023/11/26 10:11:28;;;;;;;;;;;3.40;99.90;;;;;;4793812;29;19939;-76
2023/11/26 10:13:57;;;;;;;;;;;3.50;99.90;;;;;;4814569;29;20463;-77
2023/11/26 10:16:31;;;;;;;;;;;3.30;99.60;;;;;;4814850;29;19939;-77
2023/11/26 10:19:02;;;;;;;;;;;3.30;99.70;;;;;;4814072;29;19979;-77
2023/11/26 10:21:32;;;;;;;;;;;3.30;99.80;;;;;;4811856;29;19938;-77
2023/11/26 10:24:03;;;;;;;;;;;3.40;99.90;;;;;;4811999;29;19932;-77
2023/11/26 10:26:33;;;;;;;;;;;3.50;99.90;;;;;;4824921;29;20481;-78
2023/11/26 10:29:02;;;;;;;;;;;3.50;99.80;;;;;;4794536;29;19932;-77
2023/11/26 10:31:31;;;;;;;;;;;3.70;98.70;;;;;;4830432;29;19915;-76
2023/11/26 10:34:30;;;;;;;;;;;3.80;97.90;;;;;;4819494;29;19932;-77
2023/11/26 10:36:58;;;;;;;;;;;3.80;97.50;;;;;;4792658;29;20063;-77
2023/11/26 10:39:27;;;;;;;;;;;3.70;97.70;;;;;;4814201;29;20092;-76
2023/11/26 10:41:56;;;;;;;;;;;3.60;97.80;;;;;;4810689;29;19939;-77
2023/11/26 10:44:25;;;;;;;;;;;3.70;97.70;;;;;;4815281;29;19932;-76
2023/11/26 10:46:53;;;;;;;;;;;3.70;97.60;;;;;;4791918;29;19944;-76
2023/11/26 10:49:27;;;;;;;;;;;3.70;98.00;;;;;;4819452;29;20159;-77
2023/11/26 10:51:59;;;;;;;;;;;3.80;97.80;;;;;;4820136;29;19932;-77
2023/11/26 10:54:32;;;;;;;;;;;3.90;97.80;;;;;;4807006;29;19932;-77
2023/11/26 10:57:05;;;;;;;;;;;3.90;96.40;;;;;;4814289;29;19939;-76
2023/11/26 10:59:36;;;;;;;;;;;4.00;95.90;;;;;;4803309;29;20930;-77
2023/11/26 11:02:05;;;;;;;;;;;4.00;95.50;;;;;;4808527;29;20407;-78
2023/11/26 11:04:36;;;;;;;;;;;4.00;95.70;;;;;;4823663;29;19944;-77
2023/11/26 11:07:05;;;;;;;;;;;4.10;95.20;;;;;;4821156;29;20004;-78
2023/11/26 11:09:37;;;;;;;;;;;4.10;94.70;;;;;;4806949;29;20100;-77
2023/11/26 11:12:08;;;;;;;;;;;4.10;94.80;;;;;;4821814;29;19939;-79
2023/11/26 11:14:37;;;;;;;;;;;4.20;95.00;;;;;;4796360;29;19971;-77
2023/11/26 11:17:05;;;;;;;;;;;4.30;95.30;;;;;;4814493;29;19931;-77
2023/11/26 11:19:50;;;;;;;;;;;4.10;95.70;;;;;;4793390;29;20672;-77
2023/11/26 11:22:19;;;;;;;;;;;3.90;96.00;;;;;;4832115;29;20228;-76
2023/11/26 11:24:48;;;;;;;;;;;3.60;97.10;;;;;;4818767;29;19967;-78
2023/11/26 11:27:16;;;;;;;;;;;3.50;97.80;;;;;;4795934;29;19932;-78
2023/11/26 11:29:45;;;;;;;;;;;3.50;98.10;;;;;;4828231;29;20038;-78
2023/11/26 11:32:14;;;;;;;;;;;3.50;98.10;;;;;;4812156;29;22077;-77
2023/11/26 11:34:43;;;;;;;;;;;3.70;97.50;;;;;;4815316;29;19920;-77
2023/11/26 11:37:12;;;;;;;;;;;3.80;96.50;;;;;;4813382;29;19931;-78
2023/11/26 11:39:46;;;;;;;;;;;3.80;96.40;;;;;;4804536;29;19932;-78
2023/11/26 11:42:17;;;;;;;;;;;3.20;96.60;;;;;;4790624;29;19932;-76
2023/11/26 11:44:45;;;;;;;;;;;3.70;96.80;;;;;;4798932;29;19932;-78
2023/11/26 11:47:33;;;;;;;;;;;3.60;96.00;;;;;;4814677;29;19932;-77
2023/11/26 11:50:08;;;;;;;;;;;3.60;95.30;;;;;;4799182;29;19932;-76
2023/11/26 11:52:39;;;;;;;;;;;3.90;94.60;;;;;;4816892;29;20335;-79
2023/11/26 11:55:32;;;;;;;;;;;4.00;93.90;;;;;;4793482;29;23287;-76
2023/11/26 11:58:04;;;;;;;;;;;4.10;94.10;;;;;;4810512;29;20065;-77
2023/11/26 12:00:34;;;;;;;;;;;3.90;93.80;;;;;;4813387;29;19932;-77
2023/11/26 12:03:02;;;;;;;;;;;3.70;93.90;;;;;;4811875;29;19932;-79
2023/11/26 12:05:30;;;;;;;;;;;3.60;94.20;;;;;;4787614;29;20053;-77
2023/11/26 12:08:00;;;;;;;;;;;3.60;93.80;;;;;;4794375;29;19932;-77
2023/11/26 12:10:31;;;;;;;;;;;3.60;93.60;;;;;;4798103;29;19936;-76
2023/11/26 12:13:00;;;;;;;;;;;3.50;93.40;;;;;;4814521;29;19990;-77
2023/11/26 12:15:30;;;;;;;;;;;3.40;93.30;;;;;;4811801;29;19956;-77
2023/11/26 12:17:59;;;;;;;;;;;3.40;93.50;;;;;;4794047;29;22004;-76
2023/11/26 12:20:28;;;;;;;;;;;3.40;93.40;;;;;;4832687;29;19932;-77
2023/11/26 12:22:56;;;;;;;;;;;3.30;93.10;;;;;;4819936;29;19928;-78
2023/11/26 12:25:26;;;;;;;;;;;3.20;92.70;;;;;;4814543;29;19979;-77
2023/11/26 12:28:04;;;;;;;;;;;3.20;92.70;;;;;;4822770;29;20545;-77
2023/11/26 12:30:33;;;;;;;;;;;3.20;92.80;;;;;;4829726;29;20041;-77
2023/11/26 12:33:03;;;;;;;;;;;3.10;92.50;;;;;;4813394;29;19931;-77
2023/11/26 12:35:33;;;;;;;;;;;3.10;92.90;;;;;;4828225;29;19940;-76
2023/11/26 12:38:04;;;;;;;;;;;3.10;92.90;;;;;;4829643;29;19932;-78
2023/11/26 12:40:35;;;;;;;;;;;3.00;93.10;;;;;;4830324;29;20031;-77
2023/11/26 12:43:04;;;;;;;;;;;3.00;92.90;;;;;;4814688;29;20014;-78
2023/11/26 12:45:32;;;;;;;;;;;3.10;92.90;;;;;;4815654;29;20412;-77
2023/11/26 12:48:01;;;;;;;;;;;3.20;92.90;;;;;;4829230;29;20308;-77
2023/11/26 12:50:40;;;;;;;;;;;3.20;92.80;;;;;;4799223;29;19932;-77
2023/11/26 12:53:10;;;;;;;;;;;3.30;93.00;;;;;;4816474;29;20054;-77
2023/11/26 12:55:48;;;;;;;;;;;3.10;92.70;;;;;;4795871;29;20443;-78
2023/11/26 12:58:19;;;;;;;;;;;3.20;92.80;;;;;;4819166;29;19931;-76
2023/11/26 13:00:48;;;;;;;;;;;3.20;93.00;;;;;;4811301;29;20573;-76
2023/11/26 13:03:18;;;;;;;;;;;3.20;93.30;;;;;;4796769;29;19939;-79
2023/11/26 13:05:46;;;;;;;;;;;3.10;93.30;;;;;;4822572;29;19963;-77
2023/11/26 13:08:20;;;;;;;;;;;3.20;93.60;;;;;;4833328;29;19932;-79
2023/11/26 13:10:51;;;;;;;;;;;3.20;93.70;;;;;;4810295;29;19939;-78
2023/11/26 13:13:25;;;;;;;;;;;3.20;93.60;;;;;;4830362;29;19932;-79
2023/11/26 13:15:56;;;;;;;;;;;3.10;93.60;;;;;;4829356;29;19932;-77
2023/11/26 13:18:25;;;;;;;;;;;3.10;93.50;;;;;;4816940;29;20071;-78
2023/11/26 13:20:56;;;;;;;;;;;3.20;93.50;;;;;;4849266;29;19931;-78
2023/11/26 13:23:25;;;;;;;;;;;3.20;93.20;;;;;;4817795;29;20309;-78
2023/11/26 13:25:57;;;;;;;;;;;3.20;92.50;;;;;;4820892;29;20398;-77
2023/11/26 13:28:26;;;;;;;;;;;3.10;92.40;;;;;;4818661;29;20073;-78
2023/11/26 13:30:54;;;;;;;;;;;3.00;92.50;;;;;;4800925;29;19939;-78
2023/11/26 13:33:22;;;;;;;;;;;2.90;92.20;;;;;;4825356;29;20024;-78
2023/11/26 13:35:51;;;;;;;;;;;2.80;92.20;;;;;;4804505;29;19932;-78
2023/11/26 13:38:20;;;;;;;;;;;2.70;92.20;;;;;;4818370;29;20080;-77
2023/11/26 13:40:49;;;;;;;;;;;2.70;92.30;;;;;;4818099;29;19939;-77
2023/11/26 13:43:22;;;;;;;;;;;2.70;92.20;;;;;;4808168;29;19932;-77
2023/11/26 13:45:51;;;;;;;;;;;2.60;92.30;;;;;;4812135;29;19940;-77
2023/11/26 13:48:22;;;;;;;;;;;2.60;92.20;;;;;;4807697;29;19963;-78
2023/11/26 13:50:51;;;;;;;;;;;2.50;92.40;;;;;;4807560;29;19920;-75
2023/11/26 13:53:22;;;;;;;;;;;2.50;92.50;;;;;;4802411;29;20039;-78
2023/11/26 13:55:53;;;;;;;;;;;2.40;92.60;;;;;;4780095;29;21135;-77
2023/11/26 13:58:24;;;;;;;;;;;2.30;92.90;;;;;;4779704;29;19920;-77
2023/11/26 14:00:52;;;;;;;;;;;2.20;93.00;;;;;;4794437;29;20314;-78
2023/11/26 14:03:21;;;;;;;;;;;2.20;93.20;;;;;;4810538;29;20024;-77
2023/11/26 14:05:50;;;;;;;;;;;2.10;93.30;;;;;;4803534;29;19939;-79
2023/11/26 14:08:18;;;;;;;;;;;2.00;93.40;;;;;;4809352;29;19932;-77
2023/11/26 14:10:46;;;;;;;;;;;2.00;93.40;;;;;;4809505;29;19932;-78
2023/11/26 14:13:17;;;;;;;;;;;2.00;93.40;;;;;;4802590;29;19940;-76
2023/11/26 14:15:51;;;;;;;;;;;2.00;93.50;;;;;;4808327;29;20500;-75
2023/11/26 14:18:19;;;;;;;;;;;1.90;93.50;;;;;;4815157;29;19932;-76
2023/11/26 14:20:47;;;;;;;;;;;1.90;93.70;;;;;;4815833;29;19920;-77
2023/11/26 14:23:16;;;;;;;;;;;1.90;93.90;;;;;;4829443;29;19932;-77
2023/11/26 14:25:44;;;;;;;;;;;2.20;94.50;;;;;;4829558;29;19932;-76
2023/11/26 14:28:12;;;;;;;;;;;1.80;93.50;;;;;;4809379;29;20384;-76
2023/11/26 14:30:41;;;;;;;;;;;1.80;93.20;;;;;;4828417;29;19954;-77
2023/11/26 14:33:12;;;;;;;;;;;1.70;93.60;;;;;;4826682;29;19932;-76
2023/11/26 14:35:42;;;;;;;;;;;1.60;93.10;;;;;;4824820;29;19938;-76
2023/11/26 14:38:12;;;;;;;;;;;1.70;93.20;;;;;;4821757;29;22845;-76
2023/11/26 14:40:41;;;;;;;;;;;1.70;93.70;;;;;;4826275;29;20088;-77
2023/11/26 14:43:10;;;;;;;;;;;1.60;93.30;;;;;;4823159;29;19932;-77